sensor_id;sensor_type;location;lat;lon;timestamp;temperature;humidity
25688;DHT22;17407;51.120;3.702;2023-09-19T00:01:42;15.70;99.90
25688;DHT22;17407;51.120;3.702;2023-09-19T00:04:13;15.80;99.90
25688;DHT22;17407;51.120;3.702;2023-09-19T00:06:40;15.70;99.90
25688;DHT22;17407;51.120;3.702;2023-09-19T00:09:06;15.70;99.90
25688;DHT22;17407;51.120;3.702;2023-09-19T00:11:36;15.60;99.90
25688;DHT22;17407;51.120;3.702;2023-09-19T00:14:02;15.70;99.90
25688;DHT22;17407;51.120;3.702;2023-09-19T00:16:28;15.60;99.90
25688;DHT22;17407;51.120;3.702;2023-09-19T00:18:54;15.60;99.90
25688;DHT22;17407;51.120;3.702;2023-09-19T00:21:20;15.60;99.90
25688;DHT22;17407;51.120;3.702;2023-09-19T00:23:46;15.70;99.90
25688;DHT22;17407;51.120;3.702;2023-09-19T00:26:12;15.70;99.90
25688;DHT22;17407;51.120;3.702;2023-09-19T00:28:38;15.70;99.90
25688;DHT22;17407;51.120;3.702;2023-09-19T00:31:07;15.60;99.90
25688;DHT22;17407;51.120;3.702;2023-09-19T00:33:34;15.60;99.90
25688;DHT22;17407;51.120;3.702;2023-09-19T00:35:59;15.60;99.90
25688;DHT22;17407;51.120;3.702;2023-09-19T00:38:29;15.50;99.90
25688;DHT22;17407;51.120;3.702;2023-09-19T00:40:55;15.50;99.90
25688;DHT22;17407;51.120;3.702;2023-09-19T00:43:22;15.50;99.90
25688;DHT22;17407;51.120;3.702;2023-09-19T00:45:52;15.60;99.90
25688;DHT22;17407;51.120;3.702;2023-09-19T00:48:20;15.50;99.90
25688;DHT22;17407;51.120;3.702;2023-09-19T00:50:47;15.50;99.90
25688;DHT22;17407;51.120;3.702;2023-09-19T00:53:15;15.60;99.90
25688;DHT22;17407;51.120;3.702;2023-09-19T00:55:44;15.50;99.90
25688;DHT22;17407;51.120;3.702;2023-09-19T00:58:10;15.50;99.90
25688;DHT22;17407;51.120;3.702;2023-09-19T01:00:37;15.40;99.90
25688;DHT22;17407;51.120;3.702;2023-09-19T01:03:04;15.40;99.90
25688;DHT22;17407;51.120;3.702;2023-09-19T01:05:33;15.40;99.90
25688;DHT22;17407;51.120;3.702;2023-09-19T01:07:59;15.50;99.90
25688;DHT22;17407;51.120;3.702;2023-09-19T01:10:25;15.50;99.90
25688;DHT22;17407;51.120;3.702;2023-09-19T01:31:51;15.40;99.90
25688;DHT22;17407;51.120;3.702;2023-09-19T01:34:19;15.40;99.90
25688;DHT22;17407;51.120;3.702;2023-09-19T01:36:46;15.50;99.90
25688;DHT22;17407;51.120;3.702;2023-09-19T01:39:12;15.50;99.90
25688;DHT22;17407;51.120;3.702;2023-09-19T01:42:06;15.60;99.90
25688;DHT22;17407;51.120;3.702;2023-09-19T01:44:49;15.50;99.90
25688;DHT22;17407;51.120;3.702;2023-09-19T01:47:26;15.50;99.90
25688;DHT22;17407;51.120;3.702;2023-09-19T01:50:17;15.60;99.90
25688;DHT22;17407;51.120;3.702;2023-09-19T01:52:56;15.60;99.90
25688;DHT22;17407;51.120;3.702;2023-09-19T01:55:24;15.60;99.90
25688;DHT22;17407;51.120;3.702;2023-09-19T02:00:26;15.60;99.90
25688;DHT22;17407;51.120;3.702;2023-09-19T02:02:53;15.50;99.90
25688;DHT22;17407;51.120;3.702;2023-09-19T02:05:24;15.60;99.90
25688;DHT22;17407;51.120;3.702;2023-09-19T02:07:51;15.60;99.90
25688;DHT22;17407;51.120;3.702;2023-09-19T02:10:18;15.60;99.90
25688;DHT22;17407;51.120;3.702;2023-09-19T02:12:44;15.60;99.90
25688;DHT22;17407;51.120;3.702;2023-09-19T02:15:10;15.60;99.90
25688;DHT22;17407;51.120;3.702;2023-09-19T02:17:36;15.60;99.90
25688;DHT22;17407;51.120;3.702;2023-09-19T02:20:01;15.60;99.90
25688;DHT22;17407;51.120;3.702;2023-09-19T02:22:29;15.60;99.90
25688;DHT22;17407;51.120;3.702;2023-09-19T02:24:55;15.60;99.90
25688;DHT22;17407;51.120;3.702;2023-09-19T02:27:23;15.60;99.90
25688;DHT22;17407;51.120;3.702;2023-09-19T02:29:49;15.70;99.90
25688;DHT22;17407;51.120;3.702;2023-09-19T02:32:15;15.60;99.90
25688;DHT22;17407;51.120;3.702;2023-09-19T02:34:43;15.70;99.90
25688;DHT22;17407;51.120;3.702;2023-09-19T02:37:10;15.60;99.90
25688;DHT22;17407;51.120;3.702;2023-09-19T02:39:36;15.70;99.90
25688;DHT22;17407;51.120;3.702;2023-09-19T02:42:02;15.80;99.90
25688;DHT22;17407;51.120;3.702;2023-09-19T02:44:29;15.90;99.90
25688;DHT22;17407;51.120;3.702;2023-09-19T02:46:55;15.80;99.90
25688;DHT22;17407;51.120;3.702;2023-09-19T02:49:22;15.80;99.90
25688;DHT22;17407;51.120;3.702;2023-09-19T02:51:48;15.90;99.90
25688;DHT22;17407;51.120;3.702;2023-09-19T02:54:14;15.90;99.90
25688;DHT22;17407;51.120;3.702;2023-09-19T02:56:41;16.00;99.90
25688;DHT22;17407;51.120;3.702;2023-09-19T02:59:06;15.90;99.90
25688;DHT22;17407;51.120;3.702;2023-09-19T03:01:32;16.00;99.90
25688;DHT22;17407;51.120;3.702;2023-09-19T03:03:59;16.10;99.90
25688;DHT22;17407;51.120;3.702;2023-09-19T03:06:24;16.00;99.90
25688;DHT22;17407;51.120;3.702;2023-09-19T03:08:50;16.10;99.90
25688;DHT22;17407;51.120;3.702;2023-09-19T03:11:17;16.00;99.90
25688;DHT22;17407;51.120;3.702;2023-09-19T03:13:51;16.00;99.90
25688;DHT22;17407;51.120;3.702;2023-09-19T03:16:17;16.00;99.90
25688;DHT22;17407;51.120;3.702;2023-09-19T03:18:42;16.00;99.90
25688;DHT22;17407;51.120;3.702;2023-09-19T03:21:08;16.10;99.90
25688;DHT22;17407;51.120;3.702;2023-09-19T03:23:34;16.10;99.90
25688;DHT22;17407;51.120;3.702;2023-09-19T03:25:59;16.20;99.90
25688;DHT22;17407;51.120;3.702;2023-09-19T03:28:25;16.20;99.90
25688;DHT22;17407;51.120;3.702;2023-09-19T03:31:01;16.20;99.90
25688;DHT22;17407;51.120;3.702;2023-09-19T03:33:27;16.20;99.90
25688;DHT22;17407;51.120;3.702;2023-09-19T03:35:54;16.20;99.90
25688;DHT22;17407;51.120;3.702;2023-09-19T03:38:20;16.20;99.90
25688;DHT22;17407;51.120;3.702;2023-09-19T03:40:47;16.20;99.90
25688;DHT22;17407;51.120;3.702;2023-09-19T03:43:13;16.20;99.90
25688;DHT22;17407;51.120;3.702;2023-09-19T03:45:39;16.20;99.90
25688;DHT22;17407;51.120;3.702;2023-09-19T03:48:12;16.30;99.90
25688;DHT22;17407;51.120;3.702;2023-09-19T03:50:38;16.20;99.90
25688;DHT22;17407;51.120;3.702;2023-09-19T03:53:04;16.20;99.90
25688;DHT22;17407;51.120;3.702;2023-09-19T03:55:32;16.30;99.90
25688;DHT22;17407;51.120;3.702;2023-09-19T03:58:01;16.20;99.90
25688;DHT22;17407;51.120;3.702;2023-09-19T04:00:26;16.20;99.90
25688;DHT22;17407;51.120;3.702;2023-09-19T04:02:52;16.20;99.90
25688;DHT22;17407;51.120;3.702;2023-09-19T04:05:19;16.20;99.90
25688;DHT22;17407;51.120;3.702;2023-09-19T04:07:44;16.20;99.90
25688;DHT22;17407;51.120;3.702;2023-09-19T04:10:10;16.10;99.90
25688;DHT22;17407;51.120;3.702;2023-09-19T04:12:40;16.00;99.90
25688;DHT22;17407;51.120;3.702;2023-09-19T04:15:06;15.90;99.90
25688;DHT22;17407;51.120;3.702;2023-09-19T04:17:32;15.90;99.90
25688;DHT22;17407;51.120;3.702;2023-09-19T04:20:01;15.90;99.90
25688;DHT22;17407;51.120;3.702;2023-09-19T04:22:26;15.90;99.90
25688;DHT22;17407;51.120;3.702;2023-09-19T04:24:52;15.80;99.90
25688;DHT22;17407;51.120;3.702;2023-09-19T04:27:18;15.80;99.90
25688;DHT22;17407;51.120;3.702;2023-09-19T04:29:44;15.80;99.90
25688;DHT22;17407;51.120;3.702;2023-09-19T04:32:10;15.80;99.90
25688;DHT22;17407;51.120;3.702;2023-09-19T04:34:36;15.70;99.90
25688;DHT22;17407;51.120;3.702;2023-09-19T04:37:02;15.60;99.90
25688;DHT22;17407;51.120;3.702;2023-09-19T04:39:29;15.60;99.90
25688;DHT22;17407;51.120;3.702;2023-09-19T04:41:55;15.70;99.90
25688;DHT22;17407;51.120;3.702;2023-09-19T04:44:21;15.60;99.90
25688;DHT22;17407;51.120;3.702;2023-09-19T04:46:47;15.60;99.90
25688;DHT22;17407;51.120;3.702;2023-09-19T04:49:13;15.50;99.90
25688;DHT22;17407;51.120;3.702;2023-09-19T04:51:39;15.50;99.90
25688;DHT22;17407;51.120;3.702;2023-09-19T04:54:05;15.50;99.90
25688;DHT22;17407;51.120;3.702;2023-09-19T04:56:32;15.60;99.90
25688;DHT22;17407;51.120;3.702;2023-09-19T04:58:58;15.60;99.90
25688;DHT22;17407;51.120;3.702;2023-09-19T05:01:24;15.50;99.90
25688;DHT22;17407;51.120;3.702;2023-09-19T05:03:53;15.50;99.90
25688;DHT22;17407;51.120;3.702;2023-09-19T05:06:19;15.50;99.90
25688;DHT22;17407;51.120;3.702;2023-09-19T05:08:48;15.40;99.90
25688;DHT22;17407;51.120;3.702;2023-09-19T05:11:21;15.50;99.90
25688;DHT22;17407;51.120;3.702;2023-09-19T05:13:49;15.50;99.90
25688;DHT22;17407;51.120;3.702;2023-09-19T05:16:18;15.50;99.90
25688;DHT22;17407;51.120;3.702;2023-09-19T05:18:44;15.50;99.90
25688;DHT22;17407;51.120;3.702;2023-09-19T05:21:10;15.60;99.90
25688;DHT22;17407;51.120;3.702;2023-09-19T05:23:36;15.60;99.90
25688;DHT22;17407;51.120;3.702;2023-09-19T05:26:02;15.60;99.90
25688;DHT22;17407;51.120;3.702;2023-09-19T05:28:29;15.50;99.90
25688;DHT22;17407;51.120;3.702;2023-09-19T05:30:55;15.60;99.90
25688;DHT22;17407;51.120;3.702;2023-09-19T05:33:20;15.60;99.90
25688;DHT22;17407;51.120;3.702;2023-09-19T05:35:48;15.70;99.90
25688;DHT22;17407;51.120;3.702;2023-09-19T05:38:14;15.70;99.90
25688;DHT22;17407;51.120;3.702;2023-09-19T05:40:41;15.60;99.90
25688;DHT22;17407;51.120;3.702;2023-09-19T05:43:08;15.70;99.90
25688;DHT22;17407;51.120;3.702;2023-09-19T05:45:34;15.70;99.90
25688;DHT22;17407;51.120;3.702;2023-09-19T05:48:14;15.80;99.90
25688;DHT22;17407;51.120;3.702;2023-09-19T05:50:42;15.80;99.90
25688;DHT22;17407;51.120;3.702;2023-09-19T05:53:08;15.80;99.90
25688;DHT22;17407;51.120;3.702;2023-09-19T05:55:40;15.90;99.90
25688;DHT22;17407;51.120;3.702;2023-09-19T05:58:05;15.80;99.90
25688;DHT22;17407;51.120;3.702;2023-09-19T06:00:31;15.80;99.90
25688;DHT22;17407;51.120;3.702;2023-09-19T06:02:58;15.80;99.90
25688;DHT22;17407;51.120;3.702;2023-09-19T06:05:25;15.90;99.90
25688;DHT22;17407;51.120;3.702;2023-09-19T06:07:58;15.90;99.90
25688;DHT22;17407;51.120;3.702;2023-09-19T06:10:27;15.80;99.90
25688;DHT22;17407;51.120;3.702;2023-09-19T06:12:54;15.90;99.90
25688;DHT22;17407;51.120;3.702;2023-09-19T06:15:21;16.00;99.90
25688;DHT22;17407;51.120;3.702;2023-09-19T06:17:53;16.00;99.90
25688;DHT22;17407;51.120;3.702;2023-09-19T06:20:23;16.00;99.90
25688;DHT22;17407;51.120;3.702;2023-09-19T06:22:49;16.00;99.90
25688;DHT22;17407;51.120;3.702;2023-09-19T06:25:16;16.10;99.90
25688;DHT22;17407;51.120;3.702;2023-09-19T06:27:53;16.10;99.90
25688;DHT22;17407;51.120;3.702;2023-09-19T06:30:22;16.10;99.90
25688;DHT22;17407;51.120;3.702;2023-09-19T06:32:49;16.10;99.90
25688;DHT22;17407;51.120;3.702;2023-09-19T06:35:15;16.10;99.90
25688;DHT22;17407;51.120;3.702;2023-09-19T06:37:42;16.10;99.90
25688;DHT22;17407;51.120;3.702;2023-09-19T06:40:13;16.10;99.90
25688;DHT22;17407;51.120;3.702;2023-09-19T06:42:47;16.20;99.90
25688;DHT22;17407;51.120;3.702;2023-09-19T06:45:15;16.10;99.90
25688;DHT22;17407;51.120;3.702;2023-09-19T06:47:47;16.20;99.90
25688;DHT22;17407;51.120;3.702;2023-09-19T06:50:20;16.30;99.90
25688;DHT22;17407;51.120;3.702;2023-09-19T06:52:49;16.30;99.90
25688;DHT22;17407;51.120;3.702;2023-09-19T06:55:16;16.30;99.90
25688;DHT22;17407;51.120;3.702;2023-09-19T06:57:42;16.40;99.90
25688;DHT22;17407;51.120;3.702;2023-09-19T07:00:12;16.50;99.90
25688;DHT22;17407;51.120;3.702;2023-09-19T07:02:44;16.50;99.90
25688;DHT22;17407;51.120;3.702;2023-09-19T07:05:10;16.50;99.90
25688;DHT22;17407;51.120;3.702;2023-09-19T07:07:36;16.60;99.90
25688;DHT22;17407;51.120;3.702;2023-09-19T07:10:02;16.60;99.90
25688;DHT22;17407;51.120;3.702;2023-09-19T07:12:29;16.70;99.90
25688;DHT22;17407;51.120;3.702;2023-09-19T07:14:54;16.70;99.90
25688;DHT22;17407;51.120;3.702;2023-09-19T07:17:20;16.70;99.90
25688;DHT22;17407;51.120;3.702;2023-09-19T07:19:46;16.90;99.90
25688;DHT22;17407;51.120;3.702;2023-09-19T07:22:13;16.90;99.90
25688;DHT22;17407;51.120;3.702;2023-09-19T07:24:39;17.00;99.90
25688;DHT22;17407;51.120;3.702;2023-09-19T07:27:05;17.00;99.90
25688;DHT22;17407;51.120;3.702;2023-09-19T07:29:30;17.10;99.90
25688;DHT22;17407;51.120;3.702;2023-09-19T07:31:56;17.20;99.90
25688;DHT22;17407;51.120;3.702;2023-09-19T07:34:22;17.30;99.90
25688;DHT22;17407;51.120;3.702;2023-09-19T07:36:50;17.40;99.90
25688;DHT22;17407;51.120;3.702;2023-09-19T07:39:15;17.50;99.90
25688;DHT22;17407;51.120;3.702;2023-09-19T07:41:41;17.50;99.90
25688;DHT22;17407;51.120;3.702;2023-09-19T07:44:07;17.60;99.90
25688;DHT22;17407;51.120;3.702;2023-09-19T07:46:35;17.60;99.90
25688;DHT22;17407;51.120;3.702;2023-09-19T07:49:01;17.80;99.90
25688;DHT22;17407;51.120;3.702;2023-09-19T07:51:27;17.90;99.90
25688;DHT22;17407;51.120;3.702;2023-09-19T07:53:52;18.00;99.90
25688;DHT22;17407;51.120;3.702;2023-09-19T07:56:20;18.10;99.90
25688;DHT22;17407;51.120;3.702;2023-09-19T07:58:45;18.20;99.90
25688;DHT22;17407;51.120;3.702;2023-09-19T08:01:12;18.20;99.90
25688;DHT22;17407;51.120;3.702;2023-09-19T08:03:39;18.30;99.90
25688;DHT22;17407;51.120;3.702;2023-09-19T08:06:09;18.40;99.90
25688;DHT22;17407;51.120;3.702;2023-09-19T08:08:36;18.50;99.90
25688;DHT22;17407;51.120;3.702;2023-09-19T08:11:05;18.50;99.90
25688;DHT22;17407;51.120;3.702;2023-09-19T08:13:38;18.60;99.90
25688;DHT22;17407;51.120;3.702;2023-09-19T08:16:13;18.70;99.90
25688;DHT22;17407;51.120;3.702;2023-09-19T08:18:40;18.90;99.90
25688;DHT22;17407;51.120;3.702;2023-09-19T08:21:06;18.80;99.90
25688;DHT22;17407;51.120;3.702;2023-09-19T08:23:37;18.90;99.90
25688;DHT22;17407;51.120;3.702;2023-09-19T08:26:04;19.00;99.90
25688;DHT22;17407;51.120;3.702;2023-09-19T08:28:33;19.20;99.90
25688;DHT22;17407;51.120;3.702;2023-09-19T08:31:07;19.20;99.90
25688;DHT22;17407;51.120;3.702;2023-09-19T08:33:34;19.20;99.90
25688;DHT22;17407;51.120;3.702;2023-09-19T08:36:04;19.30;99.90
25688;DHT22;17407;51.120;3.702;2023-09-19T08:38:31;19.40;99.90
25688;DHT22;17407;51.120;3.702;2023-09-19T08:40:59;19.40;99.90
25688;DHT22;17407;51.120;3.702;2023-09-19T08:43:25;19.40;99.90
25688;DHT22;17407;51.120;3.702;2023-09-19T08:45:58;19.60;99.90
25688;DHT22;17407;51.120;3.702;2023-09-19T08:48:29;19.70;99.90
25688;DHT22;17407;51.120;3.702;2023-09-19T08:51:03;19.70;99.90
25688;DHT22;17407;51.120;3.702;2023-09-19T08:56:06;19.70;99.90
25688;DHT22;17407;51.120;3.702;2023-09-19T08:58:50;19.90;99.90
25688;DHT22;17407;51.120;3.702;2023-09-19T09:01:19;20.00;99.90
25688;DHT22;17407;51.120;3.702;2023-09-19T09:03:52;20.00;99.90
25688;DHT22;17407;51.120;3.702;2023-09-19T09:06:23;20.10;99.90
25688;DHT22;17407;51.120;3.702;2023-09-19T09:08:51;20.00;99.90
25688;DHT22;17407;51.120;3.702;2023-09-19T09:11:18;19.90;99.90
25688;DHT22;17407;51.120;3.702;2023-09-19T09:13:44;20.00;99.90
25688;DHT22;17407;51.120;3.702;2023-09-19T09:16:11;20.00;99.90
25688;DHT22;17407;51.120;3.702;2023-09-19T09:18:38;20.00;99.90
25688;DHT22;17407;51.120;3.702;2023-09-19T09:21:04;20.10;99.90
25688;DHT22;17407;51.120;3.702;2023-09-19T09:23:30;20.20;99.90
25688;DHT22;17407;51.120;3.702;2023-09-19T09:25:58;20.20;99.90
25688;DHT22;17407;51.120;3.702;2023-09-19T09:28:29;20.30;99.90
25688;DHT22;17407;51.120;3.702;2023-09-19T09:30:56;20.40;99.90
25688;DHT22;17407;51.120;3.702;2023-09-19T09:33:24;20.60;99.90
25688;DHT22;17407;51.120;3.702;2023-09-19T09:35:57;20.70;99.90
25688;DHT22;17407;51.120;3.702;2023-09-19T09:38:26;20.90;99.90
25688;DHT22;17407;51.120;3.702;2023-09-19T09:40:57;21.30;99.90
25688;DHT22;17407;51.120;3.702;2023-09-19T09:43:28;21.70;99.90
25688;DHT22;17407;51.120;3.702;2023-09-19T09:46:20;22.00;99.90
25688;DHT22;17407;51.120;3.702;2023-09-19T09:51:45;23.40;99.90
25688;DHT22;17407;51.120;3.702;2023-09-19T09:54:24;24.30;99.90
25688;DHT22;17407;51.120;3.702;2023-09-19T09:56:57;25.30;99.90
25688;DHT22;17407;51.120;3.702;2023-09-19T10:02:30;27.00;99.90
25688;DHT22;17407;51.120;3.702;2023-09-19T10:05:13;26.60;99.90
25688;DHT22;17407;51.120;3.702;2023-09-19T10:07:45;26.30;99.90
25688;DHT22;17407;51.120;3.702;2023-09-19T10:10:35;26.60;99.90
25688;DHT22;17407;51.120;3.702;2023-09-19T10:13:10;26.40;99.90
25688;DHT22;17407;51.120;3.702;2023-09-19T10:15:48;26.00;99.90
25688;DHT22;17407;51.120;3.702;2023-09-19T10:18:22;25.40;99.90
25688;DHT22;17407;51.120;3.702;2023-09-19T10:20:49;25.50;99.90
25688;DHT22;17407;51.120;3.702;2023-09-19T10:23:18;25.30;99.90
25688;DHT22;17407;51.120;3.702;2023-09-19T10:25:49;25.10;99.90
25688;DHT22;17407;51.120;3.702;2023-09-19T10:28:16;25.40;99.90
25688;DHT22;17407;51.120;3.702;2023-09-19T10:30:48;25.70;99.90
25688;DHT22;17407;51.120;3.702;2023-09-19T10:33:16;26.50;99.90
25688;DHT22;17407;51.120;3.702;2023-09-19T10:35:45;27.40;99.90
25688;DHT22;17407;51.120;3.702;2023-09-19T10:38:12;28.00;99.90
25688;DHT22;17407;51.120;3.702;2023-09-19T10:40:39;28.20;99.90
25688;DHT22;17407;51.120;3.702;2023-09-19T10:43:13;27.90;99.90
25688;DHT22;17407;51.120;3.702;2023-09-19T10:45:44;27.50;99.90
25688;DHT22;17407;51.120;3.702;2023-09-19T10:48:10;27.40;99.90
25688;DHT22;17407;51.120;3.702;2023-09-19T10:50:48;28.30;99.90
25688;DHT22;17407;51.120;3.702;2023-09-19T10:53:16;28.50;99.90
25688;DHT22;17407;51.120;3.702;2023-09-19T10:55:52;28.00;99.90
25688;DHT22;17407;51.120;3.702;2023-09-19T10:58:27;27.60;99.90
25688;DHT22;17407;51.120;3.702;2023-09-19T11:00:55;27.30;99.90
25688;DHT22;17407;51.120;3.702;2023-09-19T11:03:22;26.90;99.90
25688;DHT22;17407;51.120;3.702;2023-09-19T11:06:08;26.70;99.90
25688;DHT22;17407;51.120;3.702;2023-09-19T11:09:07;26.40;99.90
25688;DHT22;17407;51.120;3.702;2023-09-19T11:14:17;27.10;99.90
25688;DHT22;17407;51.120;3.702;2023-09-19T11:30:38;25.70;99.90
25688;DHT22;17407;51.120;3.702;2023-09-19T11:36:08;24.90;99.90
25688;DHT22;17407;51.120;3.702;2023-09-19T11:46:33;23.50;99.90
25688;DHT22;17407;51.120;3.702;2023-09-19T11:49:06;23.40;99.90
25688;DHT22;17407;51.120;3.702;2023-09-19T11:51:42;23.40;99.90
25688;DHT22;17407;51.120;3.702;2023-09-19T11:54:13;23.70;99.90
25688;DHT22;17407;51.120;3.702;2023-09-19T11:56:46;23.90;99.90
25688;DHT22;17407;51.120;3.702;2023-09-19T11:59:25;24.10;99.90
25688;DHT22;17407;51.120;3.702;2023-09-19T12:01:58;24.50;99.90
25688;DHT22;17407;51.120;3.702;2023-09-19T12:04:42;24.80;99.90
25688;DHT22;17407;51.120;3.702;2023-09-19T12:07:15;25.00;99.90
25688;DHT22;17407;51.120;3.702;2023-09-19T12:09:43;25.10;99.90
25688;DHT22;17407;51.120;3.702;2023-09-19T12:12:18;24.90;99.90
25688;DHT22;17407;51.120;3.702;2023-09-19T12:14:51;24.50;99.90
25688;DHT22;17407;51.120;3.702;2023-09-19T12:17:17;24.20;99.90
25688;DHT22;17407;51.120;3.702;2023-09-19T12:19:53;23.80;99.90
25688;DHT22;17407;51.120;3.702;2023-09-19T12:22:19;23.40;99.90
25688;DHT22;17407;51.120;3.702;2023-09-19T12:24:48;23.20;99.90
25688;DHT22;17407;51.120;3.702;2023-09-19T12:27:16;23.10;99.90
25688;DHT22;17407;51.120;3.702;2023-09-19T12:29:43;23.00;99.90
25688;DHT22;17407;51.120;3.702;2023-09-19T12:32:10;22.90;99.90
25688;DHT22;17407;51.120;3.702;2023-09-19T12:34:36;23.00;99.90
25688;DHT22;17407;51.120;3.702;2023-09-19T12:37:14;23.00;99.90
25688;DHT22;17407;51.120;3.702;2023-09-19T12:39:49;22.90;99.90
25688;DHT22;17407;51.120;3.702;2023-09-19T12:42:17;22.80;99.90
25688;DHT22;17407;51.120;3.702;2023-09-19T12:44:55;22.70;99.90
25688;DHT22;17407;51.120;3.702;2023-09-19T12:47:24;22.50;99.90
25688;DHT22;17407;51.120;3.702;2023-09-19T12:52:55;22.60;99.90
25688;DHT22;17407;51.120;3.702;2023-09-19T12:55:29;22.50;99.90
25688;DHT22;17407;51.120;3.702;2023-09-19T12:58:17;22.40;99.90
25688;DHT22;17407;51.120;3.702;2023-09-19T13:00:45;22.60;99.90
25688;DHT22;17407;51.120;3.702;2023-09-19T13:03:34;22.70;99.90
25688;DHT22;17407;51.120;3.702;2023-09-19T13:06:04;22.70;99.90
25688;DHT22;17407;51.120;3.702;2023-09-19T13:08:32;22.90;99.90
25688;DHT22;17407;51.120;3.702;2023-09-19T13:13:33;23.00;99.90
25688;DHT22;17407;51.120;3.702;2023-09-19T13:16:00;23.00;99.90
25688;DHT22;17407;51.120;3.702;2023-09-19T13:18:27;23.00;99.90
25688;DHT22;17407;51.120;3.702;2023-09-19T13:21:06;23.00;99.90
25688;DHT22;17407;51.120;3.702;2023-09-19T13:23:54;23.10;99.90
25688;DHT22;17407;51.120;3.702;2023-09-19T13:26:25;23.30;99.90
25688;DHT22;17407;51.120;3.702;2023-09-19T13:28:55;23.20;99.90
25688;DHT22;17407;51.120;3.702;2023-09-19T13:31:20;23.00;99.90
25688;DHT22;17407;51.120;3.702;2023-09-19T13:33:48;23.00;99.90
25688;DHT22;17407;51.120;3.702;2023-09-19T13:36:14;22.80;99.90
25688;DHT22;17407;51.120;3.702;2023-09-19T13:38:43;22.70;99.90
25688;DHT22;17407;51.120;3.702;2023-09-19T13:41:12;22.60;99.90
25688;DHT22;17407;51.120;3.702;2023-09-19T13:43:41;22.50;99.90
25688;DHT22;17407;51.120;3.702;2023-09-19T13:46:07;22.50;99.90
25688;DHT22;17407;51.120;3.702;2023-09-19T13:48:33;22.20;99.90
25688;DHT22;17407;51.120;3.702;2023-09-19T13:51:02;22.10;99.90
25688;DHT22;17407;51.120;3.702;2023-09-19T13:53:27;22.00;99.90
25688;DHT22;17407;51.120;3.702;2023-09-19T13:55:53;21.80;99.90
25688;DHT22;17407;51.120;3.702;2023-09-19T13:58:18;21.70;99.90
25688;DHT22;17407;51.120;3.702;2023-09-19T14:00:44;21.80;99.90
25688;DHT22;17407;51.120;3.702;2023-09-19T14:03:10;21.90;99.90
25688;DHT22;17407;51.120;3.702;2023-09-19T14:05:36;21.90;99.90
25688;DHT22;17407;51.120;3.702;2023-09-19T14:08:03;21.90;99.90
25688;DHT22;17407;51.120;3.702;2023-09-19T14:10:29;21.90;99.90
25688;DHT22;17407;51.120;3.702;2023-09-19T14:12:57;21.80;99.90
25688;DHT22;17407;51.120;3.702;2023-09-19T14:15:29;21.70;99.90
25688;DHT22;17407;51.120;3.702;2023-09-19T14:17:56;21.60;99.90
25688;DHT22;17407;51.120;3.702;2023-09-19T14:20:22;21.60;99.90
25688;DHT22;17407;51.120;3.702;2023-09-19T14:22:54;21.60;99.90
25688;DHT22;17407;51.120;3.702;2023-09-19T14:25:20;21.40;99.90
25688;DHT22;17407;51.120;3.702;2023-09-19T14:27:47;21.50;99.90
25688;DHT22;17407;51.120;3.702;2023-09-19T14:30:14;21.40;99.90
25688;DHT22;17407;51.120;3.702;2023-09-19T14:32:45;21.30;99.90
25688;DHT22;17407;51.120;3.702;2023-09-19T14:35:10;21.30;99.90
25688;DHT22;17407;51.120;3.702;2023-09-19T14:37:36;21.30;99.90
25688;DHT22;17407;51.120;3.702;2023-09-19T14:40:06;21.20;99.90
25688;DHT22;17407;51.120;3.702;2023-09-19T14:42:43;21.30;99.90
25688;DHT22;17407;51.120;3.702;2023-09-19T14:45:14;21.20;99.90
25688;DHT22;17407;51.120;3.702;2023-09-19T14:47:45;21.10;99.90
25688;DHT22;17407;51.120;3.702;2023-09-19T14:50:13;21.20;99.90
25688;DHT22;17407;51.120;3.702;2023-09-19T14:52:40;21.20;99.90
25688;DHT22;17407;51.120;3.702;2023-09-19T14:55:07;21.20;99.90
25688;DHT22;17407;51.120;3.702;2023-09-19T14:57:34;21.10;99.90
25688;DHT22;17407;51.120;3.702;2023-09-19T15:00:00;21.20;99.90
25688;DHT22;17407;51.120;3.702;2023-09-19T15:02:26;21.10;99.90
25688;DHT22;17407;51.120;3.702;2023-09-19T15:04:52;21.10;99.90
25688;DHT22;17407;51.120;3.702;2023-09-19T15:07:18;21.10;99.90
25688;DHT22;17407;51.120;3.702;2023-09-19T15:09:44;21.10;99.90
25688;DHT22;17407;51.120;3.702;2023-09-19T15:12:10;21.00;99.90
25688;DHT22;17407;51.120;3.702;2023-09-19T15:14:40;21.10;99.90
25688;DHT22;17407;51.120;3.702;2023-09-19T15:17:06;21.00;99.90
25688;DHT22;17407;51.120;3.702;2023-09-19T15:19:32;21.00;99.90
25688;DHT22;17407;51.120;3.702;2023-09-19T15:21:57;20.90;99.90
25688;DHT22;17407;51.120;3.702;2023-09-19T15:24:23;20.80;99.90
25688;DHT22;17407;51.120;3.702;2023-09-19T15:26:52;20.80;99.90
25688;DHT22;17407;51.120;3.702;2023-09-19T15:29:18;20.90;99.90
25688;DHT22;17407;51.120;3.702;2023-09-19T15:31:45;20.90;99.90
25688;DHT22;17407;51.120;3.702;2023-09-19T15:34:11;20.90;99.90
25688;DHT22;17407;51.120;3.702;2023-09-19T15:36:39;20.90;99.90
25688;DHT22;17407;51.120;3.702;2023-09-19T15:39:06;20.80;99.90
25688;DHT22;17407;51.120;3.702;2023-09-19T15:41:34;20.80;99.90
25688;DHT22;17407;51.120;3.702;2023-09-19T15:44:02;20.80;99.90
25688;DHT22;17407;51.120;3.702;2023-09-19T15:46:30;20.80;99.90
25688;DHT22;17407;51.120;3.702;2023-09-19T15:48:56;20.70;99.90
25688;DHT22;17407;51.120;3.702;2023-09-19T15:51:23;20.80;99.90
25688;DHT22;17407;51.120;3.702;2023-09-19T15:53:50;20.70;99.90
25688;DHT22;17407;51.120;3.702;2023-09-19T15:56:17;20.60;99.90
25688;DHT22;17407;51.120;3.702;2023-09-19T15:58:45;20.60;99.90
25688;DHT22;17407;51.120;3.702;2023-09-19T16:01:11;20.70;99.90
25688;DHT22;17407;51.120;3.702;2023-09-19T16:03:43;20.70;99.90
25688;DHT22;17407;51.120;3.702;2023-09-19T16:06:10;20.70;99.90
25688;DHT22;17407;51.120;3.702;2023-09-19T16:08:55;20.70;99.90
25688;DHT22;17407;51.120;3.702;2023-09-19T16:11:22;20.80;99.90
25688;DHT22;17407;51.120;3.702;2023-09-19T16:13:49;20.70;99.90
25688;DHT22;17407;51.120;3.702;2023-09-19T16:16:16;20.50;99.90
25688;DHT22;17407;51.120;3.702;2023-09-19T16:18:46;20.50;99.90
25688;DHT22;17407;51.120;3.702;2023-09-19T16:21:14;20.40;99.90
25688;DHT22;17407;51.120;3.702;2023-09-19T16:23:40;20.50;99.90
25688;DHT22;17407;51.120;3.702;2023-09-19T16:26:07;20.40;99.90
25688;DHT22;17407;51.120;3.702;2023-09-19T16:28:36;20.30;99.90
25688;DHT22;17407;51.120;3.702;2023-09-19T16:31:03;20.20;99.90
25688;DHT22;17407;51.120;3.702;2023-09-19T16:33:34;20.10;99.90
25688;DHT22;17407;51.120;3.702;2023-09-19T16:36:02;20.00;99.90
25688;DHT22;17407;51.120;3.702;2023-09-19T16:38:28;19.90;99.90
25688;DHT22;17407;51.120;3.702;2023-09-19T16:40:58;19.80;99.90
25688;DHT22;17407;51.120;3.702;2023-09-19T16:43:28;19.80;99.90